createdAt,value
2023-03-03T00:04:51.397Z,17.90
2023-03-03T00:09:53.387Z,17.80
2023-03-03T00:14:55.812Z,16.30
2023-03-03T00:19:57.724Z,17.00
2023-03-03T00:25:24.768Z,16.57
2023-03-03T00:30:27.852Z,17.10
2023-03-03T00:35:38.620Z,16.93
2023-03-03T00:40:41.217Z,16.57
2023-03-03T00:45:49.496Z,17.87
2023-03-03T00:50:54.335Z,17.10
2023-03-03T00:55:57.472Z,16.27
2023-03-03T01:00:59.542Z,17.20
2023-03-03T01:06:12.980Z,16.93
2023-03-03T01:11:24.720Z,16.40
2023-03-03T01:16:26.788Z,17.27
2023-03-03T01:21:28.871Z,17.80
2023-03-03T01:26:31.535Z,16.67
2023-03-03T01:31:34.522Z,17.63
2023-03-03T01:36:37.437Z,18.17
2023-03-03T01:41:39.600Z,18.00
2023-03-03T01:46:56.214Z,17.47
2023-03-03T01:52:01.866Z,18.60
2023-03-03T01:57:07.022Z,18.70
2023-03-03T02:02:09.501Z,18.33
2023-03-03T02:07:12.965Z,20.53
2023-03-03T02:12:18.317Z,20.73
2023-03-03T02:17:20.334Z,19.67
2023-03-03T02:22:45.861Z,19.67
2023-03-03T02:27:48.196Z,19.30
2023-03-03T02:32:50.405Z,21.70
2023-03-03T02:37:52.599Z,22.23
2023-03-03T02:42:56.780Z,20.00
2023-03-03T02:47:58.857Z,22.80
2023-03-03T02:53:00.947Z,22.33
2023-03-03T02:58:03.822Z,23.30
2023-03-03T03:03:06.698Z,26.00
2023-03-03T03:08:10.146Z,27.37
2023-03-03T03:13:12.044Z,30.60
2023-03-03T03:18:17.681Z,31.00
2023-03-03T03:23:23.475Z,29.80
2023-03-03T03:28:25.538Z,27.77
2023-03-03T03:33:29.657Z,27.67
2023-03-03T03:38:33.696Z,29.27
2023-03-03T03:43:35.846Z,27.80
2023-03-03T03:48:38.633Z,28.87
2023-03-03T03:53:42.978Z,27.77
2023-03-03T03:58:45.358Z,26.60
2023-03-03T04:03:50.406Z,27.80
2023-03-03T04:08:56.645Z,28.10
2023-03-03T04:14:00.652Z,27.70
2023-03-03T04:19:03.172Z,28.47
2023-03-03T04:24:08.201Z,25.93
2023-03-03T04:29:10.325Z,27.43
2023-03-03T04:34:13.401Z,27.83
2023-03-03T04:39:16.432Z,26.93
2023-03-03T04:44:18.457Z,27.23
2023-03-03T04:49:20.675Z,25.77
2023-03-03T04:54:23.298Z,28.67
2023-03-03T04:59:25.443Z,25.93
2023-03-03T05:04:28.541Z,26.00
2023-03-03T05:09:30.728Z,24.47
2023-03-03T05:14:33.120Z,25.20
2023-03-03T05:19:35.379Z,23.13
2023-03-03T05:24:37.310Z,22.23
2023-03-03T05:29:39.468Z,23.80
2023-03-03T05:34:41.528Z,22.87
2023-03-03T05:39:44.875Z,22.80
2023-03-03T05:44:46.886Z,22.93
2023-03-03T05:49:48.952Z,23.03
2023-03-03T05:54:50.937Z,24.60
2023-03-03T05:59:52.984Z,22.93
2023-03-03T06:04:54.870Z,22.83
2023-03-03T06:09:56.790Z,23.50
2023-03-03T06:15:00.822Z,23.37
2023-03-03T06:20:04.193Z,23.73
2023-03-03T06:25:06.253Z,23.87
2023-03-03T06:30:09.059Z,24.57
2023-03-03T06:35:11.030Z,25.70
2023-03-03T06:40:13.562Z,23.43
2023-03-03T06:45:15.664Z,23.33
2023-03-03T06:50:20.992Z,23.73
2023-03-03T06:55:24.123Z,24.23
2023-03-03T07:00:30.710Z,25.30
2023-03-03T07:05:34.438Z,24.53
2023-03-03T07:10:36.600Z,24.80
2023-03-03T07:15:38.458Z,24.70
2023-03-03T07:20:41.228Z,24.93
2023-03-03T07:25:45.786Z,24.93
2023-03-03T07:30:48.491Z,24.50
2023-03-03T07:35:50.894Z,23.67
2023-03-03T07:40:55.240Z,24.30
2023-03-03T07:46:43.566Z,25.03
2023-03-03T07:51:45.424Z,24.37
2023-03-03T07:56:47.842Z,22.87
2023-03-03T08:01:56.609Z,21.47
2023-03-03T08:07:00.787Z,20.00
2023-03-03T08:12:19.806Z,20.40
2023-03-03T08:17:24.576Z,19.57
2023-03-03T08:22:35.837Z,18.13
2023-03-03T08:27:37.827Z,19.60
2023-03-03T08:32:39.985Z,18.57
2023-03-03T08:37:42.122Z,20.23
2023-03-03T08:42:44.203Z,19.13
2023-03-03T08:47:46.171Z,19.57
2023-03-03T08:52:48.333Z,19.13
2023-03-03T08:57:50.458Z,18.53
2023-03-03T09:02:53.155Z,18.90
2023-03-03T09:07:55.967Z,18.13
2023-03-03T09:13:01.310Z,17.73
2023-03-03T09:18:24.515Z,16.77
2023-03-03T09:23:42.756Z,17.60
2023-03-03T09:28:44.642Z,18.13
2023-03-03T09:33:49.989Z,17.97
2023-03-03T09:38:52.509Z,17.87
2023-03-03T09:44:19.269Z,17.37
2023-03-03T09:49:45.049Z,17.53
2023-03-03T09:54:56.239Z,17.90
2023-03-03T10:00:19.929Z,18.37
2023-03-03T10:05:46.497Z,18.13
2023-03-03T10:11:30.629Z,18.17
2023-03-03T10:17:15.221Z,19.17
2023-03-03T10:22:28.577Z,17.37
2023-03-03T10:27:56.812Z,17.53
2023-03-03T10:33:01.824Z,18.37
2023-03-03T10:38:37.922Z,17.80
2023-03-03T10:44:27.435Z,17.03
2023-03-03T10:49:37.767Z,15.50
2023-03-03T10:55:06.240Z,17.27
2023-03-03T11:00:42.461Z,16.20
2023-03-03T11:06:13.366Z,16.13
2023-03-03T11:11:41.348Z,16.40
2023-03-03T11:16:48.967Z,15.00
2023-03-03T11:22:09.888Z,15.43
2023-03-03T11:27:50.440Z,14.80
2023-03-03T11:33:06.759Z,14.87
2023-03-03T11:38:28.555Z,14.83
2023-03-03T11:43:36.925Z,14.30
2023-03-03T11:48:55.243Z,13.90
2023-03-03T11:54:03.866Z,14.23
2023-03-03T11:59:33.336Z,14.87
2023-03-03T12:04:44.999Z,15.70
2023-03-03T12:09:47.013Z,15.17
2023-03-03T12:15:04.217Z,16.03
2023-03-03T12:20:24.123Z,13.47
2023-03-03T12:25:34.536Z,13.73
2023-03-03T12:31:05.569Z,13.93
2023-03-03T12:36:14.572Z,15.00
2023-03-03T12:41:20.437Z,14.03
2023-03-03T12:46:34.108Z,13.40
2023-03-03T12:52:02.323Z,12.53
2023-03-03T12:57:39.133Z,13.43
2023-03-03T13:03:04.236Z,13.23
2023-03-03T13:08:31.798Z,12.07
2023-03-03T13:14:02.449Z,12.97
2023-03-03T13:19:29.667Z,13.63
2023-03-03T13:25:00.457Z,12.83
2023-03-03T13:30:23.638Z,12.70
2023-03-03T13:36:12.162Z,11.90
2023-03-03T13:41:28.655Z,12.93
2023-03-03T13:46:50.097Z,13.00
2023-03-03T13:52:11.781Z,12.73
2023-03-03T13:58:05.094Z,11.73
2023-03-03T14:03:58.074Z,11.90
2023-03-03T14:09:22.522Z,11.80
2023-03-03T14:14:27.790Z,9.93
2023-03-03T14:19:36.872Z,11.40
2023-03-03T14:25:02.571Z,11.37
2023-03-03T14:30:27.923Z,10.97
2023-03-03T14:35:33.869Z,10.47
2023-03-03T14:40:39.099Z,10.17
2023-03-03T14:45:42.053Z,8.97
2023-03-03T14:50:53.329Z,10.73
2023-03-03T14:55:55.199Z,9.07
2023-03-03T15:01:12.544Z,9.73
2023-03-03T15:06:29.751Z,9.73
2023-03-03T15:11:33.527Z,9.57
2023-03-03T15:16:35.467Z,7.80
2023-03-03T15:21:48.083Z,8.60
2023-03-03T15:27:12.340Z,8.13
2023-03-03T15:32:28.982Z,7.90
2023-03-03T15:37:55.965Z,7.63
2023-03-03T15:43:48.820Z,7.27
2023-03-03T15:49:13.426Z,7.77
2023-03-03T15:54:33.904Z,6.70
2023-03-03T15:59:52.873Z,7.20
2023-03-03T16:05:35.221Z,6.67
2023-03-03T16:10:53.380Z,5.90
2023-03-03T16:16:21.552Z,6.27
2023-03-03T16:21:35.624Z,6.53
2023-03-03T16:26:50.143Z,7.20
2023-03-03T16:31:55.577Z,6.93
2023-03-03T16:36:57.702Z,6.57
2023-03-03T16:42:15.276Z,7.10
2023-03-03T16:47:29.439Z,7.00
2023-03-03T16:53:16.495Z,6.50
2023-03-03T16:58:30.992Z,7.60
2023-03-03T17:03:48.883Z,6.53
2023-03-03T17:09:33.659Z,7.00
2023-03-03T17:14:43.214Z,6.87
2023-03-03T17:20:06.868Z,6.83
2023-03-03T17:25:40.726Z,8.30
2023-03-03T17:30:49.596Z,6.63
2023-03-03T17:36:18.444Z,6.57
2023-03-03T17:41:34.505Z,6.73
2023-03-03T17:46:45.878Z,6.67
2023-03-03T17:52:00.108Z,6.20
2023-03-03T17:57:35.579Z,6.23
2023-03-03T18:02:59.795Z,6.90
2023-03-03T18:08:20.628Z,8.27
2023-03-03T18:13:45.919Z,8.40
2023-03-03T18:19:20.295Z,7.03
2023-03-03T18:24:51.481Z,7.03
2023-03-03T18:30:26.311Z,6.97
2023-03-03T18:35:37.528Z,8.07
2023-03-03T18:41:08.976Z,8.50
2023-03-03T18:46:19.993Z,7.70
2023-03-03T18:51:34.228Z,7.83
2023-03-03T18:56:47.317Z,11.43
2023-03-03T19:01:52.007Z,14.13
2023-03-03T19:06:56.330Z,11.70
2023-03-03T19:11:58.546Z,11.00
2023-03-03T19:17:23.244Z,9.33
2023-03-03T19:22:29.953Z,8.30
2023-03-03T19:27:43.727Z,7.20
2023-03-03T19:33:21.541Z,7.87
2023-03-03T19:39:01.467Z,7.83
2023-03-03T19:44:24.272Z,8.10
2023-03-03T19:50:05.190Z,6.17
2023-03-03T19:55:33.292Z,5.87
2023-03-03T20:00:43.576Z,6.23
2023-03-03T20:06:20.622Z,5.97
2023-03-03T20:11:35.832Z,5.57
2023-03-03T20:16:43.882Z,6.43
2023-03-03T20:22:37.304Z,6.57
2023-03-03T20:28:05.906Z,6.77
2023-03-03T20:33:29.744Z,7.50
2023-03-03T20:39:04.764Z,7.33
2023-03-03T20:44:25.625Z,7.23
2023-03-03T20:50:06.230Z,7.57
2023-03-03T20:55:13.276Z,7.93
2023-03-03T21:00:29.374Z,7.47
2023-03-03T21:05:31.679Z,8.70
2023-03-03T21:10:35.937Z,9.03
2023-03-03T21:15:38.221Z,9.83
2023-03-03T21:20:41.359Z,9.83
2023-03-03T21:25:48.320Z,10.73
2023-03-03T21:31:18.160Z,9.67
2023-03-03T21:36:23.257Z,11.67
2023-03-03T21:41:25.358Z,11.93
2023-03-03T21:46:27.440Z,13.43
2023-03-03T21:51:29.461Z,12.57
2023-03-03T21:56:32.699Z,13.23
2023-03-03T22:01:37.807Z,12.30
2023-03-03T22:06:40.506Z,13.80
2023-03-03T22:11:42.402Z,12.50
2023-03-03T22:16:44.395Z,12.50
2023-03-03T22:21:46.851Z,12.23
2023-03-03T22:26:48.856Z,12.73
2023-03-03T22:31:51.549Z,11.67
2023-03-03T22:36:54.877Z,10.53
2023-03-03T22:41:56.831Z,10.37
2023-03-03T22:46:58.831Z,9.73
2023-03-03T22:52:02.658Z,10.67
2023-03-03T22:57:04.631Z,10.73
2023-03-03T23:02:06.536Z,10.03
2023-03-03T23:07:08.656Z,10.10
2023-03-03T23:12:10.872Z,9.40
2023-03-03T23:17:12.692Z,7.77
2023-03-03T23:22:16.719Z,7.27
2023-03-03T23:27:18.612Z,8.40
2023-03-03T23:32:24.754Z,8.63
2023-03-03T23:37:26.654Z,9.33
2023-03-03T23:42:30.614Z,10.33
2023-03-03T23:47:32.955Z,9.93
2023-03-03T23:52:35.017Z,9.90
2023-03-03T23:57:37.003Z,9.03
